Hartland, Ohio
Current Conditions -  °F | °C
As of 8:53 AM on Monday 24 Nov 2014 (Local Time) from KLPR Reporting Station
Light Rain Light Rain  
Wind Chill: 60°   Ceiling: Unl
Heat Index: 60°   Visibility: 10mi
Dew Point: 52°   Wind: 24mph
Humidity: 75%   Direction: 210°SSW
Pressure: 29.25"   Gusts: 37mph
Location:  41.2186°N, 82.5851°W
Report Text: KLPR 241353Z AUTO 21021G32KT 10SM -RA FEW029 FEW034 SCT044 16/11 A2925 RMK AO2 PK WND 20034/1321 RAB08E33B50 SLP904 P0000 T01560111 TSNO $
Loading
Personal Weather Stations






























Interactive Weather Map New forecast layout! Learn more

10-Day Weather Forecast

Advertisements
Track Severe Weather on mobile